Saint Elmo, Alabama
Current Conditions -  °F | °C
As of 3:56 AM on Monday 26 Jan 2015 (Local Time) from KMOB Reporting Station
Clear Clear  
Wind Chill:   Ceiling: Unl
Heat Index:   Visibility: 10mi
Dew Point:   Wind: 10mph
Humidity: 63%   Direction: 310°NW
Pressure: 29.99"   Gusts: 21mph
Location:  30.5°N, 88.25°W
Report Text: KMOB 260956Z AUTO 31009G18KT 10SM CLR 08/02 A2999 RMK AO2 SLP153 T00830017
Loading
Personal Weather Stations






























Interactive Weather Map New forecast layout! Learn more

10-Day Weather Forecast

Advertisements
Track Severe Weather on mobile